Time;durP1;ratioP1;P1;durP2;ratioP2;P2;SDS_P1;SDS_P2;PMS_P1;PMS_P2;Temp;Humidity;BMP_temperature;BMP_pressure;BME280_temperature;BME280_humidity;BME280_pressure;Samples;Min_cycle;Max_cycle;Signal;HPM_P1;HPM_P2
2023/06/23 00:01:17;;;;;;;2.17;2.07;;;26.70;52.80;;;;;;4960633;28;20739;-44
2023/06/23 00:03:45;;;;;;;2.37;2.17;;;26.60;52.50;;;;;;4963017;28;20542;-47
2023/06/23 00:06:11;;;;;;;2.90;2.00;;;26.70;52.30;;;;;;4960173;28;20462;-44
2023/06/23 00:08:39;;;;;;;2.40;2.20;;;26.50;52.60;;;;;;4969502;28;20864;-44
2023/06/23 00:11:05;;;;;;;2.10;1.90;;;26.50;52.80;;;;;;4959234;28;20872;-44
2023/06/23 00:13:34;;;;;;;2.00;1.90;;;26.40;53.00;;;;;;4960160;28;21218;-45
2023/06/23 00:16:06;;;;;;;2.00;1.87;;;26.60;52.90;;;;;;4957056;28;20455;-44
2023/06/23 00:18:35;;;;;;;2.00;1.90;;;26.70;52.70;;;;;;4954371;28;20452;-45
2023/06/23 00:21:04;;;;;;;2.03;1.93;;;26.80;52.30;;;;;;4966013;28;20653;-44
2023/06/23 00:23:30;;;;;;;2.23;1.60;;;26.80;52.50;;;;;;4968661;28;20520;-46
2023/06/23 00:25:57;;;;;;;2.07;1.90;;;26.80;52.50;;;;;;4963630;28;20485;-45
2023/06/23 00:28:22;;;;;;;2.07;1.87;;;26.80;52.50;;;;;;4971433;28;20442;-44
2023/06/23 00:30:49;;;;;;;1.83;1.73;;;26.90;52.30;;;;;;4971888;28;20781;-44
2023/06/23 00:33:15;;;;;;;2.40;1.80;;;26.50;52.80;;;;;;4971029;28;20227;-45
2023/06/23 00:35:41;;;;;;;2.10;1.90;;;26.50;53.80;;;;;;4964950;28;20495;-45
2023/06/23 00:38:07;;;;;;;4.13;2.20;;;26.70;53.10;;;;;;4957476;28;20268;-44
2023/06/23 00:40:33;;;;;;;1.93;1.73;;;26.80;52.80;;;;;;4961334;28;20206;-45
2023/06/23 00:42:59;;;;;;;2.77;2.33;;;26.60;53.30;;;;;;4961014;28;20446;-46
2023/06/23 00:45:24;;;;;;;1.90;1.80;;;26.30;53.90;;;;;;4960299;28;20658;-44
2023/06/23 00:47:50;;;;;;;1.77;1.67;;;26.30;54.00;;;;;;4968648;28;20207;-44
2023/06/23 00:50:18;;;;;;;1.80;1.70;;;26.10;54.90;;;;;;4960519;28;20226;-45
2023/06/23 00:52:51;;;;;;;1.97;1.80;;;26.10;54.90;;;;;;4956063;28;20883;-44
2023/06/23 00:55:27;;;;;;;2.10;1.90;;;26.10;54.90;;;;;;4958588;28;20505;-46
2023/06/23 00:57:55;;;;;;;5.20;1.73;;;26.30;54.70;;;;;;4959332;28;21004;-45
2023/06/23 01:00:21;;;;;;;1.97;1.77;;;26.30;54.80;;;;;;4960265;28;20435;-45
2023/06/23 01:02:49;;;;;;;1.87;1.50;;;26.30;54.90;;;;;;4957091;28;20541;-45
2023/06/23 01:05:19;;;;;;;2.20;1.97;;;26.30;55.10;;;;;;4959026;28;20438;-44
2023/06/23 01:07:57;;;;;;;2.00;1.90;;;26.30;55.20;;;;;;4958800;28;20501;-45
2023/06/23 01:10:49;;;;;;;1.83;1.73;;;26.30;55.20;;;;;;4959001;28;20533;-46
2023/06/23 01:13:34;;;;;;;1.97;1.87;;;26.40;55.10;;;;;;4965574;28;20519;-45
2023/06/23 01:16:09;;;;;;;3.03;2.13;;;26.30;55.60;;;;;;4961343;28;20613;-46
2023/06/23 01:18:53;;;;;;;2.00;1.90;;;26.20;55.40;;;;;;4964503;28;20445;-44
2023/06/23 01:21:32;;;;;;;2.17;2.07;;;26.10;55.70;;;;;;4968658;28;20445;-45
2023/06/23 01:24:19;;;;;;;1.90;1.80;;;26.10;55.50;;;;;;4963317;28;20485;-45
2023/06/23 01:27:12;;;;;;;4.53;2.57;;;26.10;55.40;;;;;;4958005;28;20480;-44
2023/06/23 01:29:42;;;;;;;2.60;2.40;;;25.70;57.00;;;;;;4959346;28;20993;-44
2023/06/23 01:32:14;;;;;;;2.57;2.37;;;25.60;58.30;;;;;;4966304;28;20444;-44
2023/06/23 01:34:46;;;;;;;3.00;2.80;;;25.30;59.10;;;;;;4958422;28;20520;-44
2023/06/23 01:37:26;;;;;;;2.50;2.30;;;25.20;61.10;;;;;;4964695;28;20454;-45
2023/06/23 01:39:56;;;;;;;2.80;2.50;;;25.10;61.70;;;;;;4961220;28;20457;-47
2023/06/23 01:42:25;;;;;;;2.57;2.37;;;24.90;63.30;;;;;;4967695;28;20767;-45
2023/06/23 01:44:56;;;;;;;3.30;3.00;;;24.70;64.60;;;;;;4960814;28;20455;-46
2023/06/23 01:47:34;;;;;;;4.47;2.70;;;24.60;65.50;;;;;;4964597;28;21386;-46
2023/06/23 01:50:05;;;;;;;3.13;2.83;;;24.30;67.00;;;;;;4959382;28;20470;-45
2023/06/23 01:52:35;;;;;;;3.00;2.80;;;24.30;67.20;;;;;;4967441;28;20965;-46
2023/06/23 01:55:04;;;;;;;4.00;3.60;;;23.90;68.90;;;;;;4960701;28;20929;-45
2023/06/23 01:57:31;;;;;;;3.90;3.30;;;23.60;69.50;;;;;;4964751;28;20439;-45
2023/06/23 01:59:58;;;;;;;4.03;3.63;;;23.50;70.00;;;;;;4960439;28;20945;-45
2023/06/23 02:02:26;;;;;;;4.60;3.60;;;23.50;69.90;;;;;;4968537;28;20439;-45
2023/06/23 02:04:54;;;;;;;4.70;4.27;;;23.60;68.40;;;;;;4966453;28;20452;-44
2023/06/23 02:07:21;;;;;;;5.17;4.67;;;23.50;69.10;;;;;;4968161;28;20533;-45
2023/06/23 02:09:49;;;;;;;4.67;4.27;;;23.60;68.10;;;;;;4960042;28;20843;-45
2023/06/23 02:12:16;;;;;;;4.80;4.40;;;24.00;66.70;;;;;;4972121;28;20443;-45
2023/06/23 02:14:43;;;;;;;4.20;3.80;;;24.20;64.40;;;;;;4970829;28;20511;-44
2023/06/23 02:17:10;;;;;;;4.67;4.30;;;24.00;63.30;;;;;;4961617;28;20793;-49
2023/06/23 02:19:46;;;;;;;4.97;4.43;;;23.90;63.40;;;;;;4962143;28;20450;-45
2023/06/23 02:22:19;;;;;;;4.13;3.80;;;24.10;62.90;;;;;;4964696;28;20866;-48
2023/06/23 02:24:46;;;;;;;4.87;4.37;;;24.00;62.00;;;;;;4971826;28;20484;-45
2023/06/23 02:27:12;;;;;;;4.13;3.73;;;23.90;63.40;;;;;;4963379;28;20584;-47
2023/06/23 02:29:39;;;;;;;5.83;3.50;;;23.80;63.30;;;;;;4963568;28;20465;-48
2023/06/23 02:32:06;;;;;;;3.80;3.40;;;23.60;62.80;;;;;;4965395;28;20953;-49
2023/06/23 02:34:32;;;;;;;3.80;3.03;;;23.70;63.10;;;;;;4969397;28;20568;-49
2023/06/23 02:37:09;;;;;;;3.80;3.50;;;23.60;63.90;;;;;;4962261;28;20935;-48
2023/06/23 02:39:40;;;;;;;3.70;3.40;;;23.30;64.20;;;;;;4963366;28;20206;-47
2023/06/23 02:42:07;;;;;;;4.17;3.73;;;23.40;64.50;;;;;;4967734;28;20450;-49
2023/06/23 02:44:38;;;;;;;4.30;3.90;;;23.30;64.50;;;;;;4961286;28;20447;-49
2023/06/23 02:47:13;;;;;;;3.87;3.57;;;23.10;65.10;;;;;;4961812;28;20439;-45
2023/06/23 02:49:40;;;;;;;3.70;3.40;;;23.20;65.50;;;;;;4961747;28;20449;-49
2023/06/23 02:52:08;;;;;;;4.67;4.37;;;23.20;65.10;;;;;;4963735;28;20565;-45
2023/06/23 02:54:40;;;;;;;3.87;3.57;;;23.00;65.50;;;;;;4958352;28;20968;-48
2023/06/23 02:57:11;;;;;;;3.80;3.50;;;23.20;65.30;;;;;;4962815;28;20438;-49
2023/06/23 02:59:38;;;;;;;4.43;4.13;;;23.40;64.30;;;;;;4959943;28;20450;-48
2023/06/23 03:02:07;;;;;;;4.07;3.50;;;23.50;64.00;;;;;;4960995;28;20458;-48
2023/06/23 03:04:35;;;;;;;7.80;3.70;;;23.50;63.90;;;;;;4959516;28;20542;-46
2023/06/23 03:07:01;;;;;;;4.43;4.13;;;23.40;64.10;;;;;;4963970;28;20446;-48
2023/06/23 03:09:27;;;;;;;5.10;4.70;;;23.20;64.50;;;;;;4957447;28;20595;-45
2023/06/23 03:11:52;;;;;;;4.40;4.10;;;23.20;64.30;;;;;;4961391;28;20530;-45
2023/06/23 03:14:18;;;;;;;5.23;4.83;;;23.40;64.10;;;;;;4961046;28;20251;-48
2023/06/23 03:16:59;;;;;;;4.60;4.20;;;23.50;64.50;;;;;;4959794;28;20200;-48
2023/06/23 03:19:25;;;;;;;5.00;4.60;;;23.50;63.30;;;;;;4962795;28;21055;-46
2023/06/23 03:21:57;;;;;;;5.43;4.93;;;23.80;62.60;;;;;;4958990;28;20451;-48
2023/06/23 03:24:26;;;;;;;5.60;5.10;;;24.00;61.80;;;;;;4959814;28;20236;-46
2023/06/23 03:26:57;;;;;;;4.93;4.53;;;23.90;61.30;;;;;;4961176;28;20447;-47
2023/06/23 03:29:25;;;;;;;8.10;5.80;;;23.60;62.30;;;;;;4961431;28;20452;-48
2023/06/23 03:31:52;;;;;;;9.13;6.57;;;23.60;62.20;;;;;;4967685;28;20450;-46
2023/06/23 03:34:20;;;;;;;6.60;6.03;;;23.50;62.80;;;;;;4969017;28;20495;-48
2023/06/23 03:36:47;;;;;;;7.13;6.53;;;23.80;62.20;;;;;;4962018;28;20446;-45
2023/06/23 03:39:23;;;;;;;7.30;6.70;;;23.90;61.00;;;;;;4966945;28;20443;-48
2023/06/23 03:41:49;;;;;;;7.17;6.57;;;23.80;62.10;;;;;;4961109;28;20463;-44
2023/06/23 03:44:27;;;;;;;6.57;6.00;;;23.80;62.00;;;;;;4961851;28;20447;-48
2023/06/23 03:46:57;;;;;;;7.60;7.00;;;23.90;61.50;;;;;;4960443;28;20521;-47
2023/06/23 03:49:39;;;;;;;7.80;7.10;;;24.10;60.80;;;;;;4960837;28;20453;-47
2023/06/23 03:52:06;;;;;;;8.17;7.40;;;24.00;61.70;;;;;;4962201;28;20462;-47
2023/06/23 03:54:33;;;;;;;7.60;6.97;;;23.90;61.40;;;;;;4965784;28;20641;-45
2023/06/23 03:57:03;;;;;;;9.53;7.10;;;24.00;61.10;;;;;;4967953;28;20490;-48
2023/06/23 03:59:30;;;;;;;8.03;7.33;;;23.80;60.80;;;;;;4965003;28;20843;-45
2023/06/23 04:01:58;;;;;;;9.20;8.33;;;23.80;61.40;;;;;;4955163;28;20475;-48
2023/06/23 04:04:26;;;;;;;10.00;9.10;;;23.90;60.80;;;;;;4963144;28;20443;-44
2023/06/23 04:06:54;;;;;;;8.90;8.10;;;24.00;60.60;;;;;;4958933;28;20439;-44
2023/06/23 04:09:21;;;;;;;8.70;7.80;;;23.80;60.30;;;;;;4964017;28;20446;-48
2023/06/23 04:11:50;;;;;;;8.73;7.90;;;23.70;60.50;;;;;;4968200;28;20446;-44
2023/06/23 04:14:17;;;;;;;8.60;7.80;;;23.80;60.70;;;;;;4958014;28;20490;-45
2023/06/23 04:16:43;;;;;;;8.90;8.10;;;23.70;60.40;;;;;;4956388;28;20470;-48
2023/06/23 04:19:12;;;;;;;8.70;7.90;;;23.70;60.60;;;;;;4962068;28;20824;-44
2023/06/23 04:21:40;;;;;;;9.07;8.07;;;23.80;60.10;;;;;;4959212;28;20926;-44
2023/06/23 04:24:08;;;;;;;8.20;7.50;;;23.80;60.20;;;;;;4958100;28;20547;-45
2023/06/23 04:26:34;;;;;;;9.40;8.50;;;23.80;59.80;;;;;;4956409;28;20539;-45
2023/06/23 04:29:04;;;;;;;9.90;9.00;;;23.80;59.70;;;;;;4957310;28;20482;-44
2023/06/23 04:31:32;;;;;;;8.77;7.97;;;23.60;60.10;;;;;;4959448;28;21220;-44
2023/06/23 04:33:57;;;;;;;10.33;9.17;;;23.60;60.30;;;;;;4960396;28;20501;-46
2023/06/23 04:36:27;;;;;;;8.87;8.07;;;23.50;59.90;;;;;;4966203;28;20446;-44
2023/06/23 04:38:57;;;;;;;10.10;9.10;;;23.50;60.10;;;;;;4966282;28;20552;-44
2023/06/23 04:41:26;;;;;;;9.37;8.47;;;23.40;60.00;;;;;;4965097;28;20953;-46
2023/06/23 04:43:54;;;;;;;10.33;9.33;;;23.30;60.30;;;;;;4954825;28;20447;-45
2023/06/23 04:46:22;;;;;;;10.73;9.73;;;23.00;61.20;;;;;;4970468;28;20474;-45
2023/06/23 04:49:01;;;;;;;10.80;9.93;;;22.90;61.30;;;;;;4965419;28;20509;-47
2023/06/23 04:51:31;;;;;;;10.77;9.70;;;23.00;61.50;;;;;;4966742;28;20998;-44
2023/06/23 04:54:05;;;;;;;12.00;10.80;;;23.20;61.00;;;;;;4964566;28;20565;-45
2023/06/23 04:56:34;;;;;;;11.83;10.77;;;23.30;60.40;;;;;;4966935;28;20503;-43
2023/06/23 04:59:04;;;;;;;13.10;11.90;;;23.30;60.20;;;;;;4965816;28;20469;-47
2023/06/23 05:01:31;;;;;;;13.67;12.00;;;23.10;60.60;;;;;;4966851;28;20443;-47
2023/06/23 05:04:00;;;;;;;12.97;11.60;;;23.00;61.10;;;;;;4962790;28;20451;-44
2023/06/23 05:06:27;;;;;;;12.30;11.10;;;23.00;60.50;;;;;;4959159;28;20455;-44
2023/06/23 05:08:54;;;;;;;14.23;12.83;;;22.90;60.80;;;;;;4963648;28;20446;-46
2023/06/23 05:11:21;;;;;;;13.20;12.10;;;22.80;60.90;;;;;;4967023;28;20447;-45
2023/06/23 05:13:48;;;;;;;14.80;13.30;;;23.10;60.80;;;;;;4965767;28;21063;-47
2023/06/23 05:16:15;;;;;;;14.73;13.37;;;23.00;60.20;;;;;;4965896;28;20497;-44
2023/06/23 05:18:43;;;;;;;14.33;13.00;;;22.80;60.80;;;;;;4967172;28;20454;-47
2023/06/23 05:21:10;;;;;;;14.83;13.27;;;22.80;61.20;;;;;;4960795;28;20451;-44
2023/06/23 05:23:41;;;;;;;14.90;13.50;;;22.90;61.10;;;;;;4957192;28;20479;-46
2023/06/23 05:26:08;;;;;;;14.23;12.87;;;22.90;60.60;;;;;;4966112;28;20545;-43
2023/06/23 05:28:36;;;;;;;15.30;13.83;;;23.00;60.40;;;;;;4967890;28;20443;-45
2023/06/23 05:31:03;;;;;;;14.93;13.53;;;23.10;59.90;;;;;;4970903;28;20446;-44
2023/06/23 05:33:32;;;;;;;14.70;13.27;;;23.00;60.00;;;;;;4967478;28;20844;-44
2023/06/23 05:35:59;;;;;;;17.90;15.00;;;23.20;59.70;;;;;;4968939;28;20431;-49
2023/06/23 05:38:27;;;;;;;17.30;14.30;;;23.20;59.50;;;;;;4970207;28;20438;-44
2023/06/23 05:40:53;;;;;;;16.67;15.03;;;23.30;59.40;;;;;;4969806;28;20545;-44
2023/06/23 05:43:18;;;;;;;17.33;15.73;;;23.30;59.30;;;;;;4967367;28;20911;-44
2023/06/23 05:45:44;;;;;;;17.87;15.93;;;23.20;59.30;;;;;;4968915;28;20274;-45
2023/06/23 05:48:28;;;;;;;18.10;16.10;;;23.30;59.20;;;;;;4967059;28;20207;-48
2023/06/23 05:51:00;;;;;;;20.57;18.47;;;23.20;59.10;;;;;;4970154;28;20210;-44
2023/06/23 05:53:28;;;;;;;18.33;16.53;;;23.20;59.10;;;;;;4969458;28;20517;-45
2023/06/23 05:56:23;;;;;;;22.07;19.77;;;23.20;59.40;;;;;;4968433;28;20877;-44
2023/06/23 05:58:55;;;;;;;24.43;18.10;;;23.00;59.60;;;;;;4959872;28;20459;-44
2023/06/23 06:01:23;;;;;;;21.17;17.93;;;22.90;59.80;;;;;;4966119;28;20871;-44
2023/06/23 06:04:04;;;;;;;19.40;17.33;;;23.00;59.60;;;;;;4968998;28;20442;-45
2023/06/23 06:06:31;;;;;;;20.90;18.73;;;23.10;59.70;;;;;;4971004;28;20427;-45
2023/06/23 06:08:57;;;;;;;25.37;21.50;;;23.10;59.90;;;;;;4970391;28;20996;-43
2023/06/23 06:11:26;;;;;;;23.20;20.73;;;22.90;59.20;;;;;;4970565;28;20445;-44
2023/06/23 06:13:53;;;;;;;24.40;20.13;;;22.70;59.30;;;;;;4966908;28;20556;-45
2023/06/23 06:16:19;;;;;;;22.20;20.20;;;22.80;59.60;;;;;;4970361;28;20446;-44
2023/06/23 06:18:46;;;;;;;22.30;20.10;;;22.90;59.40;;;;;;4970117;28;20470;-44
2023/06/23 06:21:13;;;;;;;21.13;19.03;;;22.90;59.30;;;;;;4970995;28;20427;-44
2023/06/23 06:23:41;;;;;;;21.17;18.87;;;23.00;59.50;;;;;;4972058;28;20493;-44
2023/06/23 06:26:08;;;;;;;20.47;18.47;;;23.20;58.60;;;;;;4966381;28;20431;-44
2023/06/23 06:28:36;;;;;;;19.23;17.40;;;22.90;58.50;;;;;;4952646;28;20424;-44
2023/06/23 06:31:03;;;;;;;21.07;18.87;;;23.10;58.30;;;;;;4954928;28;20442;-45
2023/06/23 06:33:30;;;;;;;18.07;16.37;;;23.20;58.40;;;;;;4960633;28;20588;-44
2023/06/23 06:35:58;;;;;;;21.23;19.03;;;23.30;58.30;;;;;;4972951;28;20481;-45
2023/06/23 06:38:26;;;;;;;18.63;16.87;;;23.40;57.80;;;;;;4973386;28;20509;-44
2023/06/23 06:40:54;;;;;;;20.13;18.13;;;23.40;57.70;;;;;;4973983;28;20433;-44
2023/06/23 06:43:20;;;;;;;21.20;17.70;;;23.30;57.60;;;;;;4973114;28;20489;-44
2023/06/23 06:45:47;;;;;;;20.70;18.60;;;23.20;58.20;;;;;;4971034;28;20858;-44
2023/06/23 06:48:15;;;;;;;21.27;19.27;;;23.00;58.00;;;;;;4956814;28;20196;-44
2023/06/23 06:50:41;;;;;;;20.73;18.57;;;22.90;58.30;;;;;;4962963;28;20957;-43
2023/06/23 06:53:08;;;;;;;21.27;19.07;;;22.90;58.50;;;;;;4973317;28;20486;-43
2023/06/23 06:55:34;;;;;;;19.10;17.30;;;22.80;58.50;;;;;;4969309;28;20942;-44
2023/06/23 06:58:01;;;;;;;19.77;17.80;;;22.90;58.40;;;;;;4965923;28;21625;-43
2023/06/23 07:00:27;;;;;;;20.40;18.30;;;23.20;58.30;;;;;;4970065;28;20202;-44
2023/06/23 07:02:54;;;;;;;19.57;17.10;;;23.30;57.70;;;;;;4971714;28;20458;-45
2023/06/23 07:05:20;;;;;;;19.23;17.37;;;23.20;57.70;;;;;;4966947;28;20910;-44
2023/06/23 07:07:46;;;;;;;20.37;18.20;;;23.40;57.60;;;;;;4952489;28;20480;-44
2023/06/23 07:10:12;;;;;;;22.27;18.50;;;23.40;57.10;;;;;;4969191;28;20207;-43
2023/06/23 07:12:37;;;;;;;20.90;18.73;;;23.40;57.40;;;;;;4979390;28;20196;-46
2023/06/23 07:15:03;;;;;;;18.67;16.57;;;23.50;57.20;;;;;;4967635;28;20231;-45
2023/06/23 07:17:29;;;;;;;19.80;17.90;;;23.60;57.00;;;;;;4972342;28;20820;-45
2023/06/23 07:19:54;;;;;;;21.07;18.97;;;23.40;56.70;;;;;;4972520;28;20449;-43
2023/06/23 07:22:20;;;;;;;18.00;16.20;;;23.40;57.10;;;;;;4970544;28;20254;-42
2023/06/23 07:24:46;;;;;;;20.97;18.40;;;23.60;56.90;;;;;;4969547;28;20269;-44
2023/06/23 07:27:14;;;;;;;19.33;17.30;;;23.40;56.40;;;;;;4976951;28;20195;-44
2023/06/23 07:29:40;;;;;;;19.47;17.57;;;23.30;56.70;;;;;;4970108;28;20253;-46
2023/06/23 07:32:07;;;;;;;21.37;16.00;;;23.20;57.20;;;;;;4971517;28;20766;-44
2023/06/23 07:34:33;;;;;;;20.33;18.17;;;23.50;56.90;;;;;;4970848;28;20231;-44
2023/06/23 07:36:58;;;;;;;18.17;16.30;;;23.50;56.60;;;;;;4971217;28;20457;-44
2023/06/23 07:39:24;;;;;;;18.77;16.70;;;23.40;56.50;;;;;;4972222;28;20565;-45
2023/06/23 07:41:50;;;;;;;16.20;14.70;;;23.10;56.90;;;;;;4972556;28;20266;-45
2023/06/23 07:44:15;;;;;;;16.43;14.73;;;23.10;57.00;;;;;;4971537;28;20195;-44
2023/06/23 07:46:41;;;;;;;16.23;14.70;;;23.00;57.10;;;;;;4970449;28;20195;-46
2023/06/23 07:49:06;;;;;;;15.07;13.47;;;23.00;57.40;;;;;;4967411;28;20202;-44
2023/06/23 07:51:32;;;;;;;16.67;15.13;;;23.20;56.80;;;;;;4972283;28;20238;-44
2023/06/23 07:53:58;;;;;;;19.30;16.83;;;23.20;56.50;;;;;;4950070;28;20690;-43
2023/06/23 07:56:23;;;;;;;18.03;16.20;;;23.20;56.60;;;;;;4970949;28;20254;-45
2023/06/23 07:58:49;;;;;;;17.63;15.93;;;23.00;56.80;;;;;;4968650;28;20199;-44
2023/06/23 08:01:15;;;;;;;19.03;17.00;;;23.00;57.10;;;;;;4969226;28;20210;-44
2023/06/23 08:03:45;;;;;;;17.40;15.70;;;23.00;57.10;;;;;;4969984;28;20197;-45
2023/06/23 08:06:11;;;;;;;20.17;14.77;;;23.10;57.10;;;;;;4972822;28;20199;-44
2023/06/23 08:08:36;;;;;;;17.80;15.97;;;23.00;57.10;;;;;;4970979;28;20795;-44
2023/06/23 08:11:02;;;;;;;17.57;15.87;;;23.10;56.90;;;;;;4972909;28;20195;-47
2023/06/23 08:13:28;;;;;;;19.10;16.23;;;23.10;56.50;;;;;;4966323;28;20234;-45
2023/06/23 08:15:53;;;;;;;16.00;14.50;;;23.00;56.80;;;;;;4969736;28;21184;-45
2023/06/23 08:18:19;;;;;;;14.20;12.73;;;23.00;57.10;;;;;;4969091;28;20600;-45
2023/06/23 08:20:44;;;;;;;16.30;14.47;;;23.20;57.10;;;;;;4969741;28;20195;-47
2023/06/23 08:23:10;;;;;;;15.30;13.90;;;23.40;56.70;;;;;;4969989;28;20289;-45
2023/06/23 08:25:36;;;;;;;14.13;12.83;;;23.50;56.10;;;;;;4970324;28;20204;-45
2023/06/23 08:28:01;;;;;;;14.23;12.93;;;23.60;56.30;;;;;;4968643;28;20717;-44
2023/06/23 08:30:29;;;;;;;14.70;13.40;;;23.70;55.80;;;;;;4968817;28;20195;-45
2023/06/23 08:32:55;;;;;;;15.73;14.23;;;23.90;55.50;;;;;;4969867;28;20551;-44
2023/06/23 08:35:21;;;;;;;12.70;11.60;;;23.90;54.60;;;;;;4966821;28;20450;-45
2023/06/23 08:37:47;;;;;;;14.53;12.97;;;24.10;54.90;;;;;;4967447;28;20286;-44
2023/06/23 08:40:13;;;;;;;13.20;11.90;;;23.90;54.60;;;;;;4968884;28;21017;-44
2023/06/23 08:42:39;;;;;;;14.10;12.80;;;24.00;54.40;;;;;;4972121;28;20207;-45
2023/06/23 08:45:07;;;;;;;13.77;12.20;;;24.10;54.50;;;;;;4971041;28;20435;-45
2023/06/23 08:47:38;;;;;;;13.60;12.30;;;24.50;54.40;;;;;;4972277;28;20205;-46
2023/06/23 08:50:04;;;;;;;12.40;11.30;;;24.50;53.60;;;;;;4967214;28;20447;-47
2023/06/23 08:52:30;;;;;;;14.33;12.93;;;24.70;53.50;;;;;;4969968;28;20525;-44
2023/06/23 08:54:56;;;;;;;12.27;11.17;;;24.60;52.70;;;;;;4970735;28;20577;-46
2023/06/23 08:57:21;;;;;;;12.50;11.27;;;24.50;52.80;;;;;;4970361;28;20214;-47
2023/06/23 08:59:47;;;;;;;11.90;10.80;;;24.50;52.70;;;;;;4969047;28;20202;-45
2023/06/23 09:02:13;;;;;;;11.93;10.77;;;24.70;52.50;;;;;;4969313;28;20191;-44
2023/06/23 09:04:41;;;;;;;11.00;9.90;;;24.70;52.60;;;;;;4969510;28;20700;-46
2023/06/23 09:07:07;;;;;;;10.67;9.67;;;25.00;52.40;;;;;;4970780;28;20206;-44
2023/06/23 09:09:32;;;;;;;9.43;8.40;;;25.30;50.90;;;;;;4969407;28;20478;-44
2023/06/23 09:11:59;;;;;;;8.93;8.13;;;25.40;50.40;;;;;;4969395;28;20207;-45
2023/06/23 09:14:32;;;;;;;9.13;7.80;;;25.40;49.90;;;;;;4964467;28;20219;-45
2023/06/23 09:16:58;;;;;;;9.90;9.00;;;25.70;49.70;;;;;;4966631;28;20517;-46
2023/06/23 09:19:24;;;;;;;9.30;8.50;;;26.00;49.00;;;;;;4962447;28;20920;-47
2023/06/23 09:21:52;;;;;;;9.30;8.50;;;26.20;48.80;;;;;;4970909;28;20431;-45
2023/06/23 09:24:17;;;;;;;9.50;8.63;;;26.60;48.80;;;;;;4966566;28;20489;-46
2023/06/23 09:26:51;;;;;;;9.93;8.90;;;26.90;48.20;;;;;;4969895;28;20537;-46
2023/06/23 09:29:21;;;;;;;11.13;10.20;;;27.20;47.70;;;;;;4966688;28;20195;-45
2023/06/23 09:31:49;;;;;;;9.30;8.40;;;27.00;47.00;;;;;;4968279;28;20454;-48
2023/06/23 09:34:30;;;;;;;10.17;9.13;;;26.80;47.90;;;;;;4960059;28;20482;-46
2023/06/23 09:37:13;;;;;;;12.37;10.93;;;26.70;47.90;;;;;;4962033;28;20891;-46
2023/06/23 09:39:45;;;;;;;10.13;9.30;;;26.20;48.00;;;;;;4963786;28;21223;-46
2023/06/23 09:42:14;;;;;;;9.90;9.00;;;26.00;48.60;;;;;;4968133;28;20459;-44
2023/06/23 09:44:48;;;;;;;10.03;9.20;;;26.40;48.70;;;;;;4968345;28;21181;-45
2023/06/23 09:47:16;;;;;;;9.33;8.43;;;26.80;47.40;;;;;;4965966;28;20450;-45
2023/06/23 09:49:45;;;;;;;9.33;8.53;;;26.90;47.00;;;;;;4965109;28;20486;-48
2023/06/23 09:52:21;;;;;;;12.83;10.63;;;27.30;46.60;;;;;;4965206;28;20450;-47
2023/06/23 09:54:47;;;;;;;13.57;8.67;;;27.20;46.00;;;;;;4966046;28;20598;-46
2023/06/23 09:57:17;;;;;;;8.10;7.30;;;27.00;45.70;;;;;;4969246;28;20525;-46
2023/06/23 09:59:44;;;;;;;8.53;7.73;;;27.20;45.90;;;;;;4966089;28;20210;-47
2023/06/23 10:02:24;;;;;;;7.27;6.53;;;27.40;46.10;;;;;;4964727;28;21022;-50
2023/06/23 10:04:56;;;;;;;6.57;6.00;;;27.50;44.80;;;;;;4972990;28;20430;-49
2023/06/23 10:07:24;;;;;;;10.20;6.60;;;27.70;43.60;;;;;;4969440;28;20449;-46
2023/06/23 10:09:58;;;;;;;6.90;6.30;;;28.00;43.10;;;;;;4969905;28;20451;-46
2023/06/23 10:12:26;;;;;;;8.13;7.43;;;27.90;43.40;;;;;;4968459;28;20454;-46
2023/06/23 10:14:53;;;;;;;7.60;6.90;;;27.70;43.50;;;;;;4973042;28;20494;-45
2023/06/23 10:17:19;;;;;;;8.27;7.57;;;27.60;44.00;;;;;;4970531;28;20484;-50
2023/06/23 10:19:48;;;;;;;12.30;7.37;;;27.50;44.30;;;;;;4971703;28;20474;-46
2023/06/23 10:22:16;;;;;;;7.63;7.03;;;27.60;44.10;;;;;;4971088;28;20199;-49
2023/06/23 10:24:47;;;;;;;7.50;6.80;;;27.60;44.00;;;;;;4967304;28;20495;-49
2023/06/23 10:27:22;;;;;;;7.07;6.47;;;27.90;43.60;;;;;;4969999;28;20489;-48
2023/06/23 10:29:53;;;;;;;7.77;7.10;;;27.90;42.90;;;;;;4953576;28;20465;-49
2023/06/23 10:32:34;;;;;;;8.30;7.60;;;27.60;43.30;;;;;;4970988;28;20446;-48
2023/06/23 10:35:08;;;;;;;8.13;7.43;;;27.40;43.90;;;;;;4971167;28;20547;-49
2023/06/23 10:37:35;;;;;;;7.63;7.03;;;27.30;44.00;;;;;;4969140;28;20513;-49
2023/06/23 10:40:04;;;;;;;6.73;6.23;;;27.30;44.10;;;;;;4964710;28;20934;-48
2023/06/23 10:42:34;;;;;;;7.87;7.20;;;27.70;44.00;;;;;;4969311;28;20465;-46
2023/06/23 10:45:01;;;;;;;7.53;6.93;;;27.90;43.90;;;;;;4965700;28;20533;-46
2023/06/23 10:47:27;;;;;;;9.10;6.30;;;27.80;44.00;;;;;;4972445;28;20871;-47
2023/06/23 10:49:53;;;;;;;7.50;6.80;;;28.00;43.60;;;;;;4973239;28;20422;-48
2023/06/23 10:52:19;;;;;;;7.17;6.47;;;27.90;43.40;;;;;;4972819;28;20446;-48
2023/06/23 10:54:45;;;;;;;5.60;5.10;;;27.80;43.10;;;;;;4970418;28;20488;-49
2023/06/23 10:57:14;;;;;;;7.30;6.40;;;27.60;41.50;;;;;;4971480;28;20192;-48
2023/06/23 10:59:59;;;;;;;7.50;6.80;;;27.10;42.80;;;;;;4967329;28;20218;-50
2023/06/23 11:02:25;;;;;;;7.23;6.63;;;26.80;44.40;;;;;;4966615;28;20458;-48
2023/06/23 11:05:03;;;;;;;8.13;7.47;;;26.70;44.70;;;;;;4963820;28;20450;-49
2023/06/23 11:07:28;;;;;;;6.70;6.10;;;26.80;44.70;;;;;;4971531;28;20191;-49
2023/06/23 11:09:54;;;;;;;9.73;6.20;;;26.80;43.90;;;;;;4973067;28;20488;-49
2023/06/23 11:12:36;;;;;;;6.43;5.93;;;27.10;43.60;;;;;;4972356;28;20187;-46
2023/06/23 11:15:19;;;;;;;6.27;5.77;;;27.20;42.30;;;;;;4968486;28;20993;-48
2023/06/23 11:17:50;;;;;;;7.20;6.60;;;27.60;43.50;;;;;;4973301;28;20431;-45
2023/06/23 11:20:25;;;;;;;5.97;5.40;;;27.60;42.80;;;;;;4970884;28;20454;-49
2023/06/23 11:22:56;;;;;;;7.67;7.03;;;27.90;42.70;;;;;;4973443;28;20528;-50
2023/06/23 11:25:33;;;;;;;7.10;6.50;;;28.20;42.50;;;;;;4970856;28;20486;-48
2023/06/23 11:28:26;;;;;;;7.03;6.53;;;28.50;42.50;;;;;;4972606;28;20455;-49
2023/06/23 11:31:16;;;;;;;7.97;7.27;;;28.50;42.40;;;;;;4971006;28;20454;-46
2023/06/23 11:33:55;;;;;;;6.67;6.13;;;28.60;42.00;;;;;;4972099;28;20573;-45
2023/06/23 11:36:21;;;;;;;7.10;6.40;;;28.40;41.20;;;;;;4970969;28;20846;-48
2023/06/23 11:38:46;;;;;;;7.40;6.60;;;28.40;41.80;;;;;;4970436;28;20977;-49
2023/06/23 11:41:14;;;;;;;6.93;5.60;;;28.60;42.00;;;;;;4967851;28;20447;-45
2023/06/23 11:43:42;;;;;;;5.90;5.40;;;28.70;41.40;;;;;;4958825;28;20674;-46
2023/06/23 11:46:15;;;;;;;5.77;5.23;;;28.70;41.50;;;;;;4958260;28;20447;-49
2023/06/23 11:48:42;;;;;;;7.67;6.37;;;28.80;40.10;;;;;;4967861;28;20471;-48
2023/06/23 11:51:18;;;;;;;6.00;5.60;;;28.90;40.30;;;;;;4966626;28;20447;-45
2023/06/23 11:53:49;;;;;;;6.67;6.00;;;29.10;40.30;;;;;;4958115;28;20604;-44
2023/06/23 11:56:16;;;;;;;7.50;6.77;;;29.10;40.80;;;;;;4963540;28;20590;-46
2023/06/23 11:58:49;;;;;;;7.30;6.40;;;29.10;41.00;;;;;;4962922;28;20965;-43
2023/06/23 12:01:16;;;;;;;6.80;6.30;;;29.10;40.90;;;;;;4966739;28;20443;-44
2023/06/23 12:03:48;;;;;;;5.90;5.40;;;29.40;41.50;;;;;;4966277;28;20993;-46
2023/06/23 12:06:19;;;;;;;5.00;4.60;;;29.60;40.30;;;;;;4968502;28;20478;-48
2023/06/23 12:08:45;;;;;;;5.03;4.73;;;29.90;39.10;;;;;;4968337;28;20451;-46
2023/06/23 12:11:10;;;;;;;5.00;4.70;;;30.00;38.00;;;;;;4960994;28;20449;-45
2023/06/23 12:13:37;;;;;;;4.83;4.47;;;29.80;38.60;;;;;;4963361;28;20494;-46
2023/06/23 12:16:04;;;;;;;4.87;4.47;;;29.50;37.60;;;;;;4966310;28;20723;-45
2023/06/23 12:18:29;;;;;;;8.60;5.10;;;29.70;36.90;;;;;;4965184;28;20509;-45
2023/06/23 12:20:55;;;;;;;5.90;4.47;;;29.90;36.70;;;;;;4956999;28;21248;-45
2023/06/23 12:23:21;;;;;;;6.00;5.50;;;30.00;36.90;;;;;;4966913;28;20243;-45
2023/06/23 12:25:52;;;;;;;7.00;5.50;;;30.20;37.60;;;;;;4965405;28;20294;-44
2023/06/23 12:28:19;;;;;;;6.80;5.50;;;29.90;38.00;;;;;;4968403;28;20836;-45
2023/06/23 12:30:48;;;;;;;5.50;5.10;;;29.90;37.80;;;;;;4963006;28;20462;-47
2023/06/23 12:33:25;;;;;;;5.10;4.70;;;29.90;37.40;;;;;;4964446;28;20460;-45
2023/06/23 12:36:17;;;;;;;4.30;3.90;;;29.90;36.80;;;;;;4963204;28;20455;-44
2023/06/23 12:38:43;;;;;;;4.23;3.80;;;30.00;36.80;;;;;;4959594;28;20453;-44
2023/06/23 12:41:19;;;;;;;5.63;4.17;;;29.70;36.40;;;;;;4961343;28;20446;-46
2023/06/23 12:43:47;;;;;;;4.00;3.70;;;29.80;36.40;;;;;;4965989;28;20233;-44
2023/06/23 12:46:15;;;;;;;3.67;3.33;;;29.80;35.90;;;;;;4967115;28;20477;-44
2023/06/23 12:48:41;;;;;;;3.93;3.53;;;29.90;35.60;;;;;;4966069;28;20451;-44
2023/06/23 12:51:08;;;;;;;10.27;4.07;;;29.80;35.00;;;;;;4962656;28;20443;-44